Time;durP1;ratioP1;P1;durP2;ratioP2;P2;SDS_P1;SDS_P2;PMS_P1;PMS_P2;Temp;Humidity;BMP_temperature;BMP_pressure;BME280_temperature;BME280_humidity;BME280_pressure;Samples;Min_cycle;Max_cycle;Signal;HPM_P1;HPM_P2
2024/01/28 00:03:54;;;;;;;11.35;2.10;;;2.20;99.90;;;;;;7341414;32;20092;-55
2024/01/28 00:07:55;;;;;;;8.57;1.70;;;2.10;99.90;;;;;;7340450;32;20108;-57
2024/01/28 00:11:57;;;;;;;8.15;1.60;;;2.00;99.90;;;;;;7339003;32;20295;-58
2024/01/28 00:15:59;;;;;;;7.68;2.03;;;1.90;99.90;;;;;;7343318;32;20111;-56
2024/01/28 00:20:03;;;;;;;7.22;1.67;;;1.90;99.90;;;;;;7340092;32;20228;-54
2024/01/28 00:24:06;;;;;;;5.50;1.62;;;1.90;99.90;;;;;;7339713;32;20434;-56
2024/01/28 00:28:08;;;;;;;9.25;1.70;;;2.00;99.90;;;;;;7345797;32;20103;-58
2024/01/28 00:32:10;;;;;;;10.70;1.80;;;2.10;99.90;;;;;;7348695;32;20130;-57
2024/01/28 00:36:15;;;;;;;9.68;1.83;;;2.10;99.90;;;;;;7342447;32;20135;-56
2024/01/28 00:40:17;;;;;;;6.93;1.52;;;2.10;99.90;;;;;;7339909;32;20155;-56
2024/01/28 00:44:19;;;;;;;5.97;1.60;;;2.20;99.90;;;;;;7342512;32;20102;-55
2024/01/28 00:48:21;;;;;;;9.77;1.83;;;2.30;99.90;;;;;;7346520;32;20200;-56
2024/01/28 00:52:23;;;;;;;4.82;1.73;;;2.30;99.90;;;;;;7349317;32;20146;-56
2024/01/28 00:56:25;;;;;;;8.38;1.62;;;2.30;99.90;;;;;;7345806;32;20137;-56
2024/01/28 01:00:27;;;;;;;9.35;1.73;;;2.30;99.90;;;;;;7343171;32;20205;-58
2024/01/28 01:04:29;;;;;;;11.10;1.85;;;2.40;99.90;;;;;;7342290;32;20234;-58
2024/01/28 01:08:32;;;;;;;10.88;2.10;;;2.50;99.90;;;;;;7341273;32;20131;-57
2024/01/28 01:12:33;;;;;;;6.97;1.75;;;2.60;99.90;;;;;;7342314;32;20118;-56
2024/01/28 01:16:35;;;;;;;6.37;1.98;;;2.60;99.90;;;;;;7344921;32;20182;-56
2024/01/28 01:20:38;;;;;;;10.43;1.77;;;2.70;99.90;;;;;;7343056;32;20103;-57
2024/01/28 01:24:40;;;;;;;6.50;1.60;;;2.80;99.90;;;;;;7337257;32;20596;-54
2024/01/28 01:28:41;;;;;;;6.93;1.65;;;2.90;99.90;;;;;;7342284;32;20111;-57
2024/01/28 01:32:43;;;;;;;11.38;1.75;;;2.90;99.90;;;;;;7344879;32;20107;-58
2024/01/28 01:36:45;;;;;;;8.27;1.50;;;2.90;99.90;;;;;;7341113;32;20187;-56
2024/01/28 01:40:47;;;;;;;9.20;1.62;;;2.90;99.90;;;;;;7341698;32;20192;-56
2024/01/28 01:44:48;;;;;;;6.07;1.65;;;2.90;99.90;;;;;;7345616;32;20234;-58
2024/01/28 01:48:51;;;;;;;8.70;1.77;;;2.80;99.90;;;;;;7344186;32;20200;-55
2024/01/28 01:52:53;;;;;;;10.68;1.55;;;2.80;99.90;;;;;;7339106;32;20340;-57
2024/01/28 01:56:56;;;;;;;7.90;1.60;;;2.80;99.90;;;;;;7338907;32;20324;-56
2024/01/28 02:00:59;;;;;;;9.57;1.50;;;2.80;99.90;;;;;;7339655;32;20587;-56
2024/01/28 02:05:01;;;;;;;8.30;1.30;;;2.90;99.90;;;;;;7345128;32;20208;-57
2024/01/28 02:09:06;;;;;;;8.75;1.50;;;3.00;99.90;;;;;;7344166;32;20173;-57
2024/01/28 02:13:08;;;;;;;6.50;1.50;;;3.00;99.90;;;;;;7338089;32;20225;-57
2024/01/28 02:17:09;;;;;;;9.85;1.52;;;3.00;99.90;;;;;;7342809;32;20096;-56
2024/01/28 02:21:12;;;;;;;5.45;1.30;;;2.90;99.90;;;;;;7342950;32;20238;-56
2024/01/28 02:25:13;;;;;;;4.30;1.00;;;2.90;99.90;;;;;;7343945;32;20208;-57
2024/01/28 02:29:15;;;;;;;6.93;1.80;;;2.90;99.90;;;;;;7337572;32;20306;-57
2024/01/28 02:33:17;;;;;;;6.97;1.73;;;2.80;99.90;;;;;;7340359;32;20566;-57
2024/01/28 02:37:19;;;;;;;6.32;1.95;;;2.80;99.90;;;;;;7340267;32;20128;-57
2024/01/28 02:41:21;;;;;;;9.45;1.50;;;2.80;99.90;;;;;;7343250;32;20297;-58
2024/01/28 02:45:23;;;;;;;4.50;1.20;;;2.80;99.90;;;;;;7340072;32;20142;-58
2024/01/28 02:49:24;;;;;;;5.32;1.40;;;2.80;99.90;;;;;;7340292;32;20714;-56
2024/01/28 02:53:26;;;;;;;7.68;1.52;;;2.80;99.90;;;;;;7336812;32;20115;-56
2024/01/28 02:57:28;;;;;;;5.87;1.20;;;2.70;99.90;;;;;;7338620;32;20579;-55
2024/01/28 03:01:30;;;;;;;8.80;1.70;;;3.00;99.90;;;;;;7339993;32;20099;-57
2024/01/28 03:05:32;;;;;;;7.10;1.80;;;3.00;99.90;;;;;;7340143;32;20304;-56
2024/01/28 03:09:34;;;;;;;6.28;1.40;;;2.90;99.90;;;;;;7339492;32;20095;-57
2024/01/28 03:13:35;;;;;;;6.60;1.50;;;2.90;99.90;;;;;;7337464;32;20202;-57
2024/01/28 03:17:38;;;;;;;6.10;1.10;;;2.90;99.90;;;;;;7330469;32;20547;-57
2024/01/28 03:21:40;;;;;;;4.28;1.20;;;3.00;99.90;;;;;;7342132;32;20191;-56
2024/01/28 03:25:43;;;;;;;10.82;1.70;;;3.00;99.90;;;;;;7340240;32;20168;-57
2024/01/28 03:29:44;;;;;;;6.80;1.52;;;2.90;99.90;;;;;;7338427;32;20110;-56
2024/01/28 03:33:46;;;;;;;6.05;1.30;;;2.80;99.90;;;;;;7338277;32;20251;-58
2024/01/28 03:37:48;;;;;;;3.72;1.35;;;2.80;99.90;;;;;;7345406;32;20115;-57
2024/01/28 03:41:50;;;;;;;7.90;1.25;;;2.80;99.90;;;;;;7345130;32;20099;-57
2024/01/28 03:45:52;;;;;;;2.62;1.02;;;2.90;99.90;;;;;;7345038;32;20627;-57
2024/01/28 03:49:54;;;;;;;6.00;1.48;;;2.90;99.90;;;;;;7344268;32;20091;-58
2024/01/28 03:53:57;;;;;;;8.75;1.30;;;2.90;99.90;;;;;;7344349;32;20178;-56
2024/01/28 03:58:01;;;;;;;3.65;1.15;;;2.90;99.90;;;;;;7346997;32;20164;-56
2024/01/28 04:02:03;;;;;;;5.03;1.30;;;2.90;99.90;;;;;;7349519;32;20638;-57
2024/01/28 04:06:05;;;;;;;7.93;1.25;;;2.90;99.90;;;;;;7348690;32;20217;-56
2024/01/28 04:10:08;;;;;;;7.25;1.15;;;2.90;99.90;;;;;;7346295;32;20165;-56
2024/01/28 04:14:09;;;;;;;7.20;1.30;;;3.00;99.90;;;;;;7344339;32;20162;-57
2024/01/28 04:18:11;;;;;;;7.55;1.30;;;3.00;99.90;;;;;;7336846;32;20216;-58
2024/01/28 04:22:14;;;;;;;6.75;1.05;;;3.10;99.90;;;;;;7346284;32;20458;-57
2024/01/28 04:26:15;;;;;;;3.83;0.90;;;3.20;99.90;;;;;;7346590;32;20179;-57
2024/01/28 04:30:17;;;;;;;3.40;1.00;;;3.20;99.90;;;;;;7341585;32;20112;-56
2024/01/28 04:34:20;;;;;;;5.30;1.35;;;3.20;99.90;;;;;;7346813;32;20194;-58
2024/01/28 04:38:22;;;;;;;5.68;0.95;;;3.20;99.90;;;;;;7339309;32;20214;-57
2024/01/28 04:42:23;;;;;;;3.33;0.90;;;3.20;99.90;;;;;;7339270;32;20535;-59
2024/01/28 04:46:25;;;;;;;4.68;1.02;;;3.40;99.90;;;;;;7344307;32;20209;-56
2024/01/28 04:50:27;;;;;;;4.97;0.80;;;3.40;99.90;;;;;;7342639;32;20222;-56
2024/01/28 04:54:30;;;;;;;2.85;0.80;;;3.40;99.90;;;;;;7341492;32;20095;-57
2024/01/28 04:58:32;;;;;;;3.67;0.82;;;3.30;99.90;;;;;;7349713;32;20246;-57
2024/01/28 05:02:33;;;;;;;5.57;0.80;;;3.50;99.90;;;;;;7342391;32;20087;-56
2024/01/28 05:06:35;;;;;;;4.10;0.80;;;3.50;99.90;;;;;;7341651;32;20897;-57
2024/01/28 05:10:38;;;;;;;4.45;0.90;;;3.40;99.90;;;;;;7346421;32;20217;-58
2024/01/28 05:14:42;;;;;;;2.85;0.60;;;3.40;99.90;;;;;;7339631;32;20111;-57
2024/01/28 05:18:45;;;;;;;3.25;0.65;;;3.40;99.90;;;;;;7342455;32;20629;-57
2024/01/28 05:22:47;;;;;;;3.60;0.80;;;3.50;99.90;;;;;;7343044;32;20230;-57
2024/01/28 05:26:48;;;;;;;4.12;0.98;;;3.40;99.90;;;;;;7345458;32;20177;-56
2024/01/28 05:30:50;;;;;;;4.07;0.90;;;3.40;99.90;;;;;;7340616;32;20175;-57
2024/01/28 05:34:52;;;;;;;2.25;0.90;;;3.40;99.90;;;;;;7343428;32;20528;-57
2024/01/28 05:39:00;;;;;;;2.28;0.70;;;3.30;99.90;;;;;;7344722;32;20154;-56
2024/01/28 05:43:02;;;;;;;5.37;1.00;;;3.20;99.90;;;;;;7339896;32;20671;-56
2024/01/28 05:47:05;;;;;;;4.30;0.90;;;3.30;99.90;;;;;;7343632;32;20571;-58
2024/01/28 05:51:07;;;;;;;7.05;0.98;;;3.30;99.90;;;;;;7338887;32;20193;-57
2024/01/28 05:55:08;;;;;;;5.07;1.00;;;3.20;99.90;;;;;;7342002;32;20242;-59
2024/01/28 05:59:10;;;;;;;4.60;1.00;;;3.10;99.90;;;;;;7345027;32;20172;-58
2024/01/28 06:03:13;;;;;;;4.15;0.88;;;3.20;99.90;;;;;;7341908;32;20126;-57
2024/01/28 06:07:14;;;;;;;2.12;0.70;;;3.10;99.90;;;;;;7338393;32;20113;-56
2024/01/28 06:11:16;;;;;;;5.10;0.90;;;3.30;99.90;;;;;;7340973;32;20403;-57
2024/01/28 06:15:18;;;;;;;3.35;0.80;;;3.20;99.90;;;;;;7342195;32;20531;-58
2024/01/28 06:19:20;;;;;;;3.85;1.00;;;3.20;99.90;;;;;;7337453;32;20157;-57
2024/01/28 06:23:22;;;;;;;2.05;0.82;;;3.30;99.90;;;;;;7344491;32;20178;-57
2024/01/28 06:27:24;;;;;;;4.22;0.60;;;3.20;99.90;;;;;;7341742;32;20116;-55
2024/01/28 06:31:26;;;;;;;4.82;1.02;;;3.30;99.90;;;;;;7339835;32;20232;-57
2024/01/28 06:35:29;;;;;;;7.10;0.90;;;3.30;99.90;;;;;;7340602;32;22198;-57
2024/01/28 06:39:31;;;;;;;3.03;0.85;;;3.30;99.90;;;;;;7336260;32;20190;-58
2024/01/28 06:43:33;;;;;;;6.18;1.05;;;3.30;99.90;;;;;;7340941;32;20099;-56
2024/01/28 06:47:34;;;;;;;6.78;1.10;;;3.10;99.90;;;;;;7334233;32;20190;-54
2024/01/28 06:51:41;;;;;;;5.45;1.02;;;3.10;99.90;;;;;;7341066;32;20223;-58
2024/01/28 06:55:43;;;;;;;3.40;1.23;;;3.10;99.90;;;;;;7338767;32;21048;-56
2024/01/28 06:59:45;;;;;;;1.92;0.77;;;3.00;99.90;;;;;;7344253;32;20427;-57
2024/01/28 07:03:47;;;;;;;2.97;0.90;;;3.00;99.90;;;;;;7342649;32;20262;-57
2024/01/28 07:07:49;;;;;;;1.65;0.88;;;3.00;99.90;;;;;;7344871;32;20099;-57
2024/01/28 07:11:50;;;;;;;7.03;0.95;;;3.00;99.90;;;;;;7344845;32;20111;-57
2024/01/28 07:15:53;;;;;;;5.95;0.90;;;3.00;99.90;;;;;;7350678;32;20122;-57
2024/01/28 07:19:54;;;;;;;3.45;0.80;;;3.00;99.90;;;;;;7338279;32;20315;-57
2024/01/28 07:23:56;;;;;;;7.12;1.35;;;3.00;99.90;;;;;;7354234;32;20096;-58
2024/01/28 07:27:58;;;;;;;2.58;0.77;;;3.10;99.90;;;;;;7348626;32;20139;-55
2024/01/28 07:32:00;;;;;;;3.47;0.70;;;3.20;99.90;;;;;;7348412;32;20099;-58
2024/01/28 07:36:02;;;;;;;3.72;0.80;;;3.30;99.90;;;;;;7349140;32;20151;-58
2024/01/28 07:40:04;;;;;;;3.87;0.73;;;3.40;99.90;;;;;;7352120;32;20135;-58
2024/01/28 07:44:06;;;;;;;3.45;0.90;;;3.50;99.90;;;;;;7349692;32;20526;-59
2024/01/28 07:48:08;;;;;;;2.90;0.90;;;3.50;99.90;;;;;;7346776;32;20153;-60
2024/01/28 07:52:10;;;;;;;3.05;0.82;;;3.70;99.90;;;;;;7346281;32;20186;-58
2024/01/28 07:56:11;;;;;;;1.30;0.70;;;3.80;99.90;;;;;;7344859;32;20164;-58
2024/01/28 08:00:14;;;;;;;5.03;0.80;;;3.90;99.90;;;;;;7345130;32;20233;-58
2024/01/28 08:04:16;;;;;;;3.80;1.20;;;4.00;99.90;;;;;;7347997;32;20226;-59
2024/01/28 08:08:18;;;;;;;3.30;0.57;;;4.00;99.90;;;;;;7349352;32;20202;-58
2024/01/28 08:12:20;;;;;;;4.62;0.90;;;4.10;99.90;;;;;;7347249;32;20185;-58
2024/01/28 08:16:21;;;;;;;7.10;1.20;;;4.20;99.90;;;;;;7349159;32;20261;-58
2024/01/28 08:20:23;;;;;;;2.78;0.80;;;4.40;99.90;;;;;;7342410;32;20588;-57
2024/01/28 08:24:25;;;;;;;2.00;0.52;;;4.40;99.90;;;;;;7340646;32;20103;-58
2024/01/28 08:28:27;;;;;;;2.83;0.80;;;4.40;99.90;;;;;;7342375;32;20559;-59
2024/01/28 08:32:28;;;;;;;4.05;1.02;;;4.40;99.90;;;;;;7341113;32;20134;-60
2024/01/28 08:36:30;;;;;;;5.95;0.90;;;4.60;99.90;;;;;;7340697;32;20142;-60
2024/01/28 08:40:32;;;;;;;3.90;1.10;;;4.70;99.90;;;;;;7340400;32;20485;-57
2024/01/28 08:44:34;;;;;;;2.22;0.85;;;4.70;99.90;;;;;;7343564;32;20100;-57
2024/01/28 08:48:36;;;;;;;4.82;0.90;;;4.70;99.90;;;;;;7343967;32;20168;-58
2024/01/28 08:52:37;;;;;;;2.33;0.90;;;4.80;99.90;;;;;;7343003;32;20193;-58
2024/01/28 08:56:39;;;;;;;5.47;1.27;;;4.90;99.90;;;;;;7348230;32;20115;-59
2024/01/28 09:00:41;;;;;;;3.35;0.88;;;4.90;99.90;;;;;;7342164;32;20179;-59
2024/01/28 09:04:43;;;;;;;4.07;0.98;;;5.00;99.90;;;;;;7341187;32;20691;-59
2024/01/28 09:08:44;;;;;;;4.32;1.00;;;5.10;99.90;;;;;;7337787;32;20222;-57
2024/01/28 09:12:46;;;;;;;2.17;0.90;;;5.10;99.90;;;;;;7346295;32;20233;-58
2024/01/28 09:16:48;;;;;;;3.33;0.90;;;5.10;99.90;;;;;;7343621;32;20616;-65
2024/01/28 09:20:51;;;;;;;4.18;1.00;;;5.40;99.90;;;;;;7343884;32;20414;-59
2024/01/28 09:24:52;;;;;;;5.65;1.30;;;5.60;99.90;;;;;;7337628;32;20115;-60
2024/01/28 09:28:54;;;;;;;3.20;0.95;;;5.60;99.90;;;;;;7337621;32;20215;-58
2024/01/28 09:32:56;;;;;;;2.53;0.80;;;5.60;99.90;;;;;;7337723;32;20738;-58
2024/01/28 09:36:58;;;;;;;4.78;1.23;;;5.70;99.90;;;;;;7348579;32;20182;-58
2024/01/28 09:41:08;;;;;;;3.75;1.10;;;5.90;99.90;;;;;;7341991;32;20149;-59
2024/01/28 09:45:10;;;;;;;4.32;1.00;;;5.90;99.90;;;;;;7344416;32;20243;-60
2024/01/28 09:49:14;;;;;;;4.10;1.10;;;6.00;99.90;;;;;;7333003;32;20092;-58
2024/01/28 09:53:17;;;;;;;3.58;1.00;;;6.20;99.90;;;;;;7343734;32;20095;-59
2024/01/28 09:57:18;;;;;;;4.97;1.25;;;6.20;99.90;;;;;;7337539;32;20360;-58
2024/01/28 10:01:20;;;;;;;3.33;1.20;;;6.20;99.90;;;;;;7338481;32;20319;-60
2024/01/28 10:05:22;;;;;;;4.20;0.98;;;6.40;99.90;;;;;;7339289;32;20326;-59
2024/01/28 10:09:24;;;;;;;3.35;1.05;;;6.50;99.90;;;;;;7340523;32;20131;-58
2024/01/28 10:13:27;;;;;;;4.37;1.02;;;6.50;99.90;;;;;;7342217;32;20107;-59
2024/01/28 10:17:29;;;;;;;4.80;1.25;;;6.70;99.90;;;;;;7341889;32;20123;-59
2024/01/28 10:21:31;;;;;;;4.72;0.95;;;6.80;99.90;;;;;;7341396;32;20516;-58
2024/01/28 10:25:33;;;;;;;2.78;1.12;;;6.90;99.90;;;;;;7342389;32;20118;-58
2024/01/28 10:29:36;;;;;;;3.20;1.20;;;6.90;99.90;;;;;;7344595;32;20178;-60
2024/01/28 10:33:38;;;;;;;3.53;1.10;;;7.20;99.90;;;;;;7337974;32;20233;-60
2024/01/28 10:37:41;;;;;;;3.80;1.25;;;7.30;99.90;;;;;;7335493;32;20139;-58
2024/01/28 10:41:44;;;;;;;4.00;1.20;;;7.40;99.90;;;;;;7340583;32;20145;-60
2024/01/28 10:45:53;;;;;;;3.30;1.10;;;7.40;99.90;;;;;;7343986;32;20646;-59
2024/01/28 10:49:59;;;;;;;7.62;1.40;;;7.50;99.90;;;;;;7339908;32;20099;-61
2024/01/28 10:54:09;;;;;;;3.75;1.08;;;7.60;99.90;;;;;;7338152;32;20206;-58
2024/01/28 10:58:11;;;;;;;3.95;1.10;;;7.70;99.90;;;;;;7338480;32;20143;-58
2024/01/28 11:02:14;;;;;;;4.68;1.17;;;7.80;99.90;;;;;;7343696;32;20528;-60
2024/01/28 11:06:18;;;;;;;6.87;1.42;;;7.80;99.90;;;;;;7341120;32;20130;-59
2024/01/28 11:10:21;;;;;;;2.62;1.20;;;7.90;99.90;;;;;;7346322;32;20195;-60
2024/01/28 11:14:26;;;;;;;4.68;1.80;;;8.00;99.90;;;;;;7344177;32;20168;-59
2024/01/28 11:18:29;;;;;;;3.45;1.10;;;8.10;99.90;;;;;;7343318;32;20216;-59
2024/01/28 11:22:46;;;;;;;4.45;1.70;;;8.20;99.90;;;;;;7338105;32;20108;-59
2024/01/28 11:26:48;;;;;;;5.35;1.23;;;8.40;99.90;;;;;;7348058;32;20103;-57
2024/01/28 11:30:52;;;;;;;3.62;1.40;;;8.30;99.90;;;;;;7340807;32;20176;-58
2024/01/28 11:34:54;;;;;;;3.17;1.12;;;8.50;99.90;;;;;;7345123;32;20100;-58
2024/01/28 11:39:05;;;;;;;5.22;1.05;;;8.60;99.90;;;;;;7329327;32;20226;-58
2024/01/28 11:43:08;;;;;;;2.65;1.00;;;8.70;99.90;;;;;;7339594;32;20108;-58
2024/01/28 11:47:13;;;;;;;3.40;1.33;;;8.80;99.90;;;;;;7344145;32;20111;-58
2024/01/28 11:51:15;;;;;;;3.10;1.10;;;8.90;99.90;;;;;;7342326;32;20543;-57
2024/01/28 11:55:17;;;;;;;3.70;1.12;;;9.00;99.90;;;;;;7344306;32;20103;-58
2024/01/28 11:59:19;;;;;;;6.05;1.20;;;9.00;99.90;;;;;;7344700;32;20206;-58
2024/01/28 12:03:21;;;;;;;4.78;1.50;;;9.10;99.90;;;;;;7344957;32;20107;-59
2024/01/28 12:07:23;;;;;;;2.50;1.20;;;9.20;99.90;;;;;;7338465;32;20183;-58
2024/01/28 12:11:25;;;;;;;3.12;1.20;;;9.30;99.90;;;;;;7346902;32;20091;-56
2024/01/28 12:15:27;;;;;;;4.57;1.30;;;9.40;99.90;;;;;;7342466;32;20171;-58
2024/01/28 12:19:29;;;;;;;2.60;1.02;;;9.50;99.90;;;;;;7347600;32;20250;-58
2024/01/28 12:23:31;;;;;;;4.32;1.20;;;9.60;99.90;;;;;;7343912;32;20138;-57
2024/01/28 12:27:33;;;;;;;2.53;1.40;;;9.60;99.90;;;;;;7345477;32;20138;-58
2024/01/28 12:31:35;;;;;;;3.60;1.00;;;9.70;99.90;;;;;;7338452;32;20218;-56
2024/01/28 12:35:37;;;;;;;4.57;1.15;;;9.70;99.90;;;;;;7340445;32;20122;-58
2024/01/28 12:39:39;;;;;;;4.35;1.20;;;9.70;99.90;;;;;;7343612;32;20209;-59
2024/01/28 12:43:43;;;;;;;2.85;1.10;;;9.90;99.90;;;;;;7347395;32;20233;-57
2024/01/28 12:47:44;;;;;;;2.42;1.08;;;9.90;99.90;;;;;;7338874;32;20114;-58
2024/01/28 12:51:46;;;;;;;3.30;1.20;;;9.90;99.90;;;;;;7345496;32;20103;-59
2024/01/28 12:55:48;;;;;;;3.97;1.30;;;9.80;99.90;;;;;;7345499;32;20500;-59
2024/01/28 12:59:50;;;;;;;2.97;1.20;;;10.00;99.90;;;;;;7343080;32;20180;-59
2024/01/28 13:03:52;;;;;;;3.50;0.75;;;10.10;99.90;;;;;;7345710;32;20627;-59
2024/01/28 13:07:54;;;;;;;2.50;0.93;;;10.20;99.90;;;;;;7345536;32;20099;-57
2024/01/28 13:11:57;;;;;;;1.75;1.10;;;10.30;99.90;;;;;;7340327;32;20219;-59
2024/01/28 13:15:59;;;;;;;3.95;0.82;;;10.40;99.90;;;;;;7340597;32;20096;-59
2024/01/28 13:20:01;;;;;;;3.00;1.37;;;10.30;99.90;;;;;;7341446;32;20170;-58
2024/01/28 13:24:04;;;;;;;4.12;1.17;;;10.40;99.90;;;;;;7345514;32;20202;-59
2024/01/28 13:28:07;;;;;;;2.62;1.10;;;10.50;99.90;;;;;;7341161;32;20095;-58
2024/01/28 13:32:09;;;;;;;3.05;1.20;;;10.60;99.90;;;;;;7339119;32;20254;-59
2024/01/28 13:36:11;;;;;;;3.10;1.15;;;10.60;99.90;;;;;;7340051;32;20144;-58
2024/01/28 13:40:13;;;;;;;3.28;1.08;;;10.80;99.90;;;;;;7337198;32;20201;-58
2024/01/28 13:44:15;;;;;;;4.32;1.15;;;11.00;99.90;;;;;;7344937;32;20124;-59
2024/01/28 13:48:16;;;;;;;1.92;1.00;;;11.10;99.90;;;;;;7340492;32;20220;-59
2024/01/28 13:52:18;;;;;;;3.20;1.00;;;11.50;99.90;;;;;;7338730;32;20111;-64
2024/01/28 13:56:21;;;;;;;3.87;1.37;;;11.80;99.90;;;;;;7343322;32;20547;-58
2024/01/28 14:00:23;;;;;;;2.15;0.93;;;12.00;99.70;;;;;;7342266;32;21947;-58
2024/01/28 14:04:24;;;;;;;4.72;1.30;;;12.40;98.20;;;;;;7343306;32;20127;-59
2024/01/28 14:08:26;;;;;;;2.20;0.98;;;12.30;97.60;;;;;;7345092;32;20127;-58
2024/01/28 14:12:28;;;;;;;4.10;1.00;;;12.40;97.40;;;;;;7343450;32;20213;-59
2024/01/28 14:16:30;;;;;;;4.45;1.10;;;12.50;96.50;;;;;;7344858;32;20656;-58
2024/01/28 14:20:32;;;;;;;3.42;1.10;;;12.60;97.00;;;;;;7345845;32;20932;-58
2024/01/28 14:24:33;;;;;;;3.28;1.27;;;12.80;96.30;;;;;;7335662;32;20100;-58
2024/01/28 14:28:35;;;;;;;2.42;1.00;;;12.90;95.30;;;;;;7341503;32;20095;-58
2024/01/28 14:32:37;;;;;;;2.40;1.02;;;12.80;94.90;;;;;;7336771;32;20131;-59
2024/01/28 14:36:39;;;;;;;4.05;1.20;;;12.70;94.80;;;;;;7344159;32;20257;-58
2024/01/28 14:40:41;;;;;;;3.03;1.10;;;12.40;96.40;;;;;;7334973;32;20138;-58
2024/01/28 14:44:42;;;;;;;2.35;1.00;;;12.00;96.90;;;;;;7335778;32;20221;-58
2024/01/28 14:48:44;;;;;;;1.85;0.98;;;11.70;97.40;;;;;;7339795;32;20597;-58
2024/01/28 14:52:46;;;;;;;1.65;0.90;;;11.40;98.00;;;;;;7337669;32;20095;-59
2024/01/28 14:56:48;;;;;;;2.97;1.10;;;11.40;99.00;;;;;;7335825;32;20513;-59
2024/01/28 15:00:52;;;;;;;4.85;1.40;;;11.20;98.20;;;;;;7334196;32;20257;-60
2024/01/28 15:04:53;;;;;;;4.05;0.93;;;10.90;99.90;;;;;;7341357;32;20301;-59
2024/01/28 15:08:56;;;;;;;2.70;0.95;;;10.70;99.20;;;;;;7344409;32;20827;-58
2024/01/28 15:12:58;;;;;;;2.70;1.00;;;10.60;99.70;;;;;;7345597;32;20103;-60
2024/01/28 15:17:00;;;;;;;4.12;1.33;;;10.50;99.80;;;;;;7339428;32;20223;-59
2024/01/28 15:21:01;;;;;;;3.42;1.10;;;10.40;99.90;;;;;;7340145;32;20280;-59
2024/01/28 15:25:04;;;;;;;1.92;1.00;;;10.40;99.90;;;;;;7343763;32;20327;-60
2024/01/28 15:29:06;;;;;;;1.40;0.80;;;10.10;99.90;;;;;;7337440;32;20342;-60
2024/01/28 15:33:07;;;;;;;2.17;1.15;;;10.10;99.90;;;;;;7344537;32;20172;-59
2024/01/28 15:37:10;;;;;;;10.10;6.32;;;10.10;99.90;;;;;;7345545;32;20213;-60
2024/01/28 15:41:11;;;;;;;4.90;2.08;;;9.90;99.90;;;;;;7342310;32;20095;-58
2024/01/28 15:45:13;;;;;;;1.92;1.00;;;9.90;99.90;;;;;;7347469;32;20168;-59
2024/01/28 15:49:15;;;;;;;2.45;1.10;;;9.80;99.90;;;;;;7345426;32;20132;-57
2024/01/28 15:53:17;;;;;;;4.25;1.00;;;9.60;99.90;;;;;;7343598;32;20264;-58
2024/01/28 15:57:19;;;;;;;3.42;0.98;;;9.60;99.90;;;;;;7344846;32;20569;-58
2024/01/28 16:01:21;;;;;;;2.90;0.93;;;9.60;99.90;;;;;;7341329;32;20123;-59
2024/01/28 16:05:23;;;;;;;4.90;1.05;;;9.40;99.90;;;;;;7342891;32;20656;-58
2024/01/28 16:09:25;;;;;;;3.10;1.00;;;9.50;99.90;;;;;;7345821;32;20477;-59
2024/01/28 16:13:36;;;;;;;1.20;0.80;;;9.20;99.90;;;;;;7349131;32;20096;-59
2024/01/28 16:17:38;;;;;;;3.12;1.05;;;9.30;99.90;;;;;;7347639;32;20188;-58
2024/01/28 16:21:40;;;;;;;4.40;0.95;;;9.00;99.90;;;;;;7342920;32;20190;-59
2024/01/28 16:25:41;;;;;;;2.65;1.00;;;9.00;99.90;;;;;;7348280;32;20108;-58
2024/01/28 16:29:43;;;;;;;2.62;1.23;;;9.00;99.90;;;;;;7342620;32;20590;-56
2024/01/28 16:33:47;;;;;;;2.28;1.00;;;8.90;99.90;;;;;;7340991;32;20465;-57
2024/01/28 16:37:50;;;;;;;2.30;0.90;;;8.80;99.90;;;;;;7339425;32;20253;-58
2024/01/28 16:41:52;;;;;;;1.30;0.65;;;8.80;99.90;;;;;;7341416;32;20139;-56
2024/01/28 16:45:54;;;;;;;2.53;1.05;;;8.80;99.90;;;;;;7345078;32;20123;-57
2024/01/28 16:49:56;;;;;;;3.40;1.00;;;8.80;99.90;;;;;;7337786;32;20230;-58
2024/01/28 16:53:58;;;;;;;1.75;0.80;;;8.80;99.90;;;;;;7341475;32;20445;-57
2024/01/28 16:58:03;;;;;;;1.92;0.95;;;8.80;99.90;;;;;;7338788;32;20319;-57
2024/01/28 17:02:06;;;;;;;1.75;1.08;;;8.70;99.90;;;;;;7342854;32;20106;-56
2024/01/28 17:06:09;;;;;;;5.80;1.60;;;8.60;99.90;;;;;;7342838;32;20123;-57
2024/01/28 17:10:11;;;;;;;3.35;1.10;;;8.60;99.90;;;;;;7342880;32;20162;-56
2024/01/28 17:14:17;;;;;;;3.83;0.90;;;8.50;99.90;;;;;;7335575;32;20502;-57
2024/01/28 17:18:18;;;;;;;2.20;1.20;;;8.40;99.90;;;;;;7340510;32;20164;-57
2024/01/28 17:22:20;;;;;;;3.10;0.85;;;8.40;99.90;;;;;;7339616;32;20123;-57
2024/01/28 17:26:22;;;;;;;2.60;1.00;;;8.40;99.90;;;;;;7346268;32;20140;-57
2024/01/28 17:30:24;;;;;;;2.62;1.02;;;8.40;99.90;;;;;;7346205;32;20244;-57
2024/01/28 17:34:26;;;;;;;3.03;1.27;;;8.40;99.90;;;;;;7344504;32;20128;-57
2024/01/28 17:38:27;;;;;;;3.35;1.10;;;8.50;99.90;;;;;;7339389;32;20141;-56
2024/01/28 17:42:29;;;;;;;2.10;1.17;;;8.50;99.90;;;;;;7339683;32;20206;-56
2024/01/28 17:46:34;;;;;;;2.67;1.02;;;8.40;99.90;;;;;;7337946;32;20171;-57
2024/01/28 17:50:38;;;;;;;3.62;0.90;;;8.50;99.90;;;;;;7337778;32;20506;-57
2024/01/28 17:54:40;;;;;;;3.45;1.45;;;8.40;99.90;;;;;;7334824;32;20137;-57
2024/01/28 17:58:42;;;;;;;2.25;1.02;;;8.40;99.90;;;;;;7337939;32;20114;-57
2024/01/28 18:02:44;;;;;;;1.98;1.02;;;8.40;99.90;;;;;;7344429;32;20171;-57
2024/01/28 18:06:45;;;;;;;2.22;1.17;;;8.50;99.90;;;;;;7342576;32;20122;-58
2024/01/28 18:10:47;;;;;;;2.67;1.10;;;8.40;99.90;;;;;;7340119;32;20168;-57
2024/01/28 18:14:49;;;;;;;2.72;1.15;;;8.40;99.90;;;;;;7334379;32;20131;-57
2024/01/28 18:18:51;;;;;;;3.40;1.15;;;8.40;99.90;;;;;;7339556;32;20202;-56
2024/01/28 18:22:53;;;;;;;3.00;1.10;;;8.40;99.90;;;;;;7337065;32;20213;-56
2024/01/28 18:26:55;;;;;;;4.05;1.17;;;8.30;99.90;;;;;;7343807;32;20182;-57
2024/01/28 18:30:58;;;;;;;2.20;0.90;;;8.40;99.90;;;;;;7337791;32;20223;-58
2024/01/28 18:34:59;;;;;;;4.97;1.30;;;8.30;99.90;;;;;;7339641;32;20430;-57
2024/01/28 18:39:04;;;;;;;4.32;1.10;;;8.20;99.90;;;;;;7338552;32;20797;-56
2024/01/28 18:43:06;;;;;;;2.78;1.17;;;8.30;99.90;;;;;;7334345;32;20157;-57
2024/01/28 18:47:13;;;;;;;3.12;1.00;;;8.30;99.80;;;;;;7340675;32;20163;-57
2024/01/28 18:51:14;;;;;;;2.83;1.10;;;8.40;99.90;;;;;;7336928;32;20171;-56
2024/01/28 18:55:16;;;;;;;3.55;1.27;;;8.50;99.50;;;;;;7336110;32;20190;-57
2024/01/28 18:59:18;;;;;;;2.55;1.00;;;8.30;99.90;;;;;;7335795;32;20213;-56
2024/01/28 19:03:20;;;;;;;3.00;1.20;;;8.40;99.40;;;;;;7332096;32;20202;-55
2024/01/28 19:07:22;;;;;;;1.48;0.90;;;8.30;99.80;;;;;;7338974;32;20135;-56
2024/01/28 19:11:24;;;;;;;2.47;1.20;;;8.40;99.80;;;;;;7336196;32;20103;-56
2024/01/28 19:15:26;;;;;;;2.72;1.12;;;8.30;99.20;;;;;;7335592;32;20170;-57
2024/01/28 19:19:29;;;;;;;3.08;1.23;;;8.30;99.60;;;;;;7337648;32;20096;-56
2024/01/28 19:23:31;;;;;;;2.42;1.23;;;8.30;99.90;;;;;;7337331;32;20315;-57
2024/01/28 19:27:32;;;;;;;3.50;1.50;;;8.30;99.60;;;;;;7338037;32;20175;-57
2024/01/28 19:31:34;;;;;;;2.58;1.10;;;8.40;98.90;;;;;;7339845;32;20221;-60
2024/01/28 19:35:42;;;;;;;2.90;1.20;;;8.40;99.20;;;;;;7332933;32;20252;-59
2024/01/28 19:39:43;;;;;;;3.70;1.27;;;8.40;99.90;;;;;;7340169;32;20118;-57
2024/01/28 19:43:45;;;;;;;3.58;1.10;;;8.40;99.90;;;;;;7339569;32;20549;-56
2024/01/28 19:47:47;;;;;;;2.45;1.10;;;8.50;99.80;;;;;;7337959;32;20115;-58
2024/01/28 19:51:49;;;;;;;2.58;1.10;;;8.50;99.90;;;;;;7336420;32;20103;-58
2024/01/28 19:55:51;;;;;;;5.53;1.35;;;8.60;99.40;;;;;;7338349;32;20186;-64
2024/01/28 19:59:53;;;;;;;2.62;1.40;;;8.60;99.90;;;;;;7334920;32;20148;-58
2024/01/28 20:03:55;;;;;;;2.80;1.23;;;9.00;99.90;;;;;;7337199;32;20334;-58
2024/01/28 20:07:57;;;;;;;1.75;1.00;;;8.90;99.90;;;;;;7338102;32;20112;-59
2024/01/28 20:11:58;;;;;;;2.97;1.30;;;8.80;99.90;;;;;;7337822;32;20264;-59
2024/01/28 20:16:00;;;;;;;4.05;1.12;;;8.70;99.70;;;;;;7336972;32;20143;-59
2024/01/28 20:20:03;;;;;;;2.03;1.17;;;8.70;99.90;;;;;;7340572;32;20163;-59
2024/01/28 20:24:05;;;;;;;2.92;1.30;;;8.70;99.90;;;;;;7341214;32;20277;-57
2024/01/28 20:28:08;;;;;;;2.00;1.15;;;8.60;99.90;;;;;;7346780;32;20122;-59
2024/01/28 20:32:10;;;;;;;2.97;1.35;;;8.70;99.90;;;;;;7343523;32;20156;-60
2024/01/28 20:36:12;;;;;;;3.65;1.60;;;8.80;99.50;;;;;;7349315;32;20119;-58
2024/01/28 20:40:13;;;;;;;2.33;1.20;;;8.80;99.80;;;;;;7345480;32;20230;-58
2024/01/28 20:44:15;;;;;;;2.87;1.20;;;8.80;99.90;;;;;;7345217;32;20119;-60
2024/01/28 20:48:17;;;;;;;2.37;1.30;;;8.80;99.80;;;;;;7339864;32;20157;-58
2024/01/28 20:52:19;;;;;;;2.87;1.40;;;8.70;99.90;;;;;;7344769;32;20155;-59
2024/01/28 20:56:25;;;;;;;3.70;1.30;;;8.80;99.90;;;;;;7346511;32;20822;-59
2024/01/28 21:00:26;;;;;;;4.00;1.30;;;8.90;99.20;;;;;;7337329;32;20784;-59
2024/01/28 21:04:28;;;;;;;2.50;1.17;;;8.80;99.90;;;;;;7346503;32;20107;-59
2024/01/28 21:08:30;;;;;;;3.90;1.50;;;8.70;99.90;;;;;;7340055;32;20126;-59
2024/01/28 21:12:32;;;;;;;2.75;1.15;;;8.80;99.90;;;;;;7345241;32;20194;-60
2024/01/28 21:16:33;;;;;;;4.10;1.85;;;8.80;99.90;;;;;;7343201;32;20099;-59